Time;durP1;ratioP1;P1;durP2;ratioP2;P2;SDS_P1;SDS_P2;PMS_P1;PMS_P2;Temp;Humidity;BMP_temperature;BMP_pressure;BME280_temperature;BME280_humidity;BME280_pressure;Samples;Min_cycle;Max_cycle;Signal;HPM_P1;HPM_P2
2022/07/22 00:00:16;;;;;;;13.27;10.63;;;;;;;;;;5070101;28;20522;-82
2022/07/22 00:02:45;;;;;;;13.77;9.53;;;;;;;;;;5070660;28;20900;-83
2022/07/22 00:05:13;;;;;;;11.67;10.53;;;;;;;;;;5068704;28;20850;-83
2022/07/22 00:07:40;;;;;;;11.27;10.10;;;;;;;;;;5070327;28;20453;-83
2022/07/22 00:10:10;;;;;;;10.80;9.60;;;;;;;;;;5070483;28;20453;-82
2022/07/22 00:12:40;;;;;;;10.33;9.33;;;;;;;;;;5068552;28;20497;-82
2022/07/22 00:15:09;;;;;;;11.33;10.20;;;;;;;;;;5070899;28;20463;-83
2022/07/22 00:17:37;;;;;;;10.47;9.37;;;;;;;;;;5068778;28;20799;-83
2022/07/22 00:20:07;;;;;;;11.03;9.57;;;;;;;;;;5070250;28;20524;-82
2022/07/22 00:22:35;;;;;;;10.63;9.63;;;;;;;;;;5069839;28;20438;-81
2022/07/22 00:25:03;;;;;;;11.37;10.10;;;;;;;;;;5069120;28;20495;-83
2022/07/22 00:27:31;;;;;;;12.37;9.63;;;;;;;;;;5071325;28;20927;-82
2022/07/22 00:29:58;;;;;;;11.10;9.90;;;;;;;;;;5067594;28;20465;-83
2022/07/22 00:32:26;;;;;;;11.03;9.93;;;;;;;;;;5070978;28;20747;-81
2022/07/22 00:34:54;;;;;;;11.23;10.13;;;;;;;;;;5068515;28;20465;-83
2022/07/22 00:37:23;;;;;;;11.30;10.20;;;;;;;;;;5068731;28;20515;-83
2022/07/22 00:39:51;;;;;;;11.00;9.90;;;;;;;;;;5066931;28;20457;-82
2022/07/22 00:42:25;;;;;;;11.30;10.10;;;;;;;;;;5063473;28;20781;-84
2022/07/22 00:44:53;;;;;;;11.10;9.97;;;;;;;;;;5065369;28;20511;-82
2022/07/22 00:47:21;;;;;;;10.13;9.10;;;;;;;;;;5066309;28;20442;-82
2022/07/22 00:49:49;;;;;;;11.40;10.20;;;;;;;;;;5063321;28;20461;-80
2022/07/22 00:52:17;;;;;;;11.17;10.17;;;;;;;;;;5065265;28;20453;-81
2022/07/22 00:54:46;;;;;;;12.80;11.60;;;;;;;;;;5059812;28;20453;-82
2022/07/22 00:57:14;;;;;;;11.67;10.47;;;;;;;;;;5064778;28;20446;-82
2022/07/22 00:59:42;;;;;;;11.90;10.67;;;;;;;;;;5064021;28;20461;-82
2022/07/22 01:02:10;;;;;;;12.00;10.60;;;;;;;;;;5066887;28;20461;-80
2022/07/22 01:04:38;;;;;;;10.93;9.83;;;;;;;;;;5065451;28;20477;-83
2022/07/22 01:07:07;;;;;;;14.23;10.97;;;;;;;;;;5065477;28;20457;-83
2022/07/22 01:09:35;;;;;;;12.20;11.00;;;;;;;;;;5063106;28;20464;-80
2022/07/22 01:12:04;;;;;;;12.70;11.40;;;;;;;;;;5061562;28;20469;-81
2022/07/22 01:14:32;;;;;;;13.40;12.10;;;;;;;;;;5061499;28;20533;-81
2022/07/22 01:17:00;;;;;;;14.20;12.67;;;;;;;;;;5061445;28;20460;-82
2022/07/22 01:19:28;;;;;;;14.03;12.57;;;;;;;;;;5063392;28;20453;-82
2022/07/22 01:21:57;;;;;;;13.30;11.90;;;;;;;;;;5064375;28;20476;-83
2022/07/22 01:24:25;;;;;;;16.60;13.00;;;;;;;;;;5067472;28;20449;-84
2022/07/22 01:26:53;;;;;;;14.00;12.60;;;;;;;;;;5067983;28;20507;-82
2022/07/22 01:29:20;;;;;;;14.73;13.23;;;;;;;;;;5068707;28;20429;-83
2022/07/22 01:31:48;;;;;;;16.60;14.90;;;;;;;;;;5067914;28;20846;-82
2022/07/22 01:34:16;;;;;;;14.53;13.07;;;;;;;;;;5067704;28;20947;-82
2022/07/22 01:36:44;;;;;;;16.70;12.83;;;;;;;;;;5068655;28;20468;-83
2022/07/22 01:39:13;;;;;;;16.43;14.30;;;;;;;;;;5066997;28;20449;-81
2022/07/22 01:41:41;;;;;;;16.10;14.40;;;;;;;;;;5069294;28;20454;-82
2022/07/22 01:44:10;;;;;;;18.43;15.80;;;;;;;;;;5067166;28;20507;-83
2022/07/22 01:46:38;;;;;;;20.17;15.90;;;;;;;;;;5066086;28;20461;-83
2022/07/22 01:49:05;;;;;;;20.83;18.03;;;;;;;;;;5066232;28;20484;-84
2022/07/22 01:51:33;;;;;;;18.47;16.03;;;;;;;;;;5067181;28;20778;-81
2022/07/22 01:54:01;;;;;;;16.33;13.37;;;;;;;;;;5067421;28;20496;-82
2022/07/22 01:56:30;;;;;;;9.70;7.40;;;;;;;;;;5068053;28;20453;-83
2022/07/22 01:58:58;;;;;;;9.43;6.20;;;;;;;;;;5066815;28;20445;-84
2022/07/22 02:01:26;;;;;;;8.57;4.47;;;;;;;;;;5067569;28;20550;-81
2022/07/22 02:03:54;;;;;;;5.30;4.17;;;;;;;;;;5067520;28;20433;-83
2022/07/22 02:06:22;;;;;;;3.20;2.33;;;;;;;;;;5066800;28;20468;-83
2022/07/22 02:08:49;;;;;;;3.43;2.40;;;;;;;;;;5068700;28;20499;-82
2022/07/22 02:11:17;;;;;;;3.27;2.20;;;;;;;;;;5066806;28;20534;-83
2022/07/22 02:13:47;;;;;;;3.43;2.20;;;;;;;;;;5069037;28;20800;-82
2022/07/22 02:16:16;;;;;;;4.93;2.00;;;;;;;;;;5066927;28;20735;-81
2022/07/22 02:18:43;;;;;;;2.90;2.00;;;;;;;;;;5067258;28;20445;-83
2022/07/22 02:21:11;;;;;;;3.57;2.17;;;;;;;;;;5067440;28;20488;-83
2022/07/22 02:23:42;;;;;;;3.00;1.90;;;;;;;;;;5066331;28;20507;-84
2022/07/22 02:26:09;;;;;;;3.87;1.80;;;;;;;;;;5066489;28;20484;-82
2022/07/22 02:28:37;;;;;;;2.40;1.50;;;;;;;;;;5066935;28;20457;-84
2022/07/22 02:31:12;;;;;;;2.47;1.43;;;;;;;;;;5066201;28;20523;-84
2022/07/22 02:33:40;;;;;;;2.20;1.33;;;;;;;;;;5066683;28;20489;-81
2022/07/22 02:36:08;;;;;;;2.30;1.20;;;;;;;;;;5067598;28;20492;-83
2022/07/22 02:38:37;;;;;;;2.43;1.30;;;;;;;;;;5068297;28;20457;-84
2022/07/22 02:41:04;;;;;;;2.23;1.33;;;;;;;;;;5066910;28;20446;-83
2022/07/22 02:43:32;;;;;;;4.63;1.20;;;;;;;;;;5065459;28;20948;-82
2022/07/22 02:46:01;;;;;;;2.00;1.00;;;;;;;;;;5066314;28;20510;-83
2022/07/22 02:48:30;;;;;;;1.63;1.20;;;;;;;;;;5067288;28;20523;-83
2022/07/22 02:50:57;;;;;;;2.63;1.13;;;;;;;;;;5066632;28;20449;-83
2022/07/22 02:53:25;;;;;;;2.17;1.43;;;;;;;;;;5072356;28;20492;-82
2022/07/22 02:55:53;;;;;;;2.60;1.20;;;;;;;;;;5069891;28;20514;-83
2022/07/22 02:58:21;;;;;;;2.43;1.13;;;;;;;;;;5070136;28;20454;-83
2022/07/22 03:00:49;;;;;;;2.47;1.43;;;;;;;;;;5070478;28;20472;-84
2022/07/22 03:03:18;;;;;;;5.70;2.00;;;;;;;;;;5068145;28;20468;-83
2022/07/22 03:05:47;;;;;;;2.90;2.00;;;;;;;;;;5070701;28;20437;-83
2022/07/22 03:08:15;;;;;;;3.80;1.90;;;;;;;;;;5069681;28;20732;-81
2022/07/22 03:10:43;;;;;;;2.97;2.00;;;;;;;;;;5071792;28;20528;-82
2022/07/22 03:13:11;;;;;;;3.90;2.60;;;;;;;;;;5070428;28;20928;-82
2022/07/22 03:15:38;;;;;;;3.97;2.73;;;;;;;;;;5069715;28;20789;-82
2022/07/22 03:18:06;;;;;;;3.20;2.50;;;;;;;;;;5071085;28;20445;-83
2022/07/22 03:20:34;;;;;;;3.57;2.77;;;;;;;;;;5060410;28;20801;-82
2022/07/22 03:23:04;;;;;;;5.50;3.47;;;;;;;;;;5062201;28;20920;-82
2022/07/22 03:25:32;;;;;;;8.17;2.43;;;;;;;;;;5062925;28;20555;-83
2022/07/22 03:27:59;;;;;;;4.30;2.43;;;;;;;;;;5062106;28;20438;-83
2022/07/22 03:30:27;;;;;;;4.17;1.73;;;;;;;;;;5063346;28;20488;-83
2022/07/22 03:32:55;;;;;;;6.60;2.80;;;;;;;;;;5060916;28;20885;-82
2022/07/22 03:35:23;;;;;;;4.30;2.10;;;;;;;;;;5063143;28;20457;-83
2022/07/22 03:37:51;;;;;;;6.30;1.97;;;;;;;;;;5062073;28;20602;-84
2022/07/22 03:40:20;;;;;;;3.40;2.10;;;;;;;;;;5061878;28;20566;-83
2022/07/22 03:42:48;;;;;;;3.60;1.90;;;;;;;;;;5063166;28;20500;-83
2022/07/22 03:45:16;;;;;;;4.30;2.13;;;;;;;;;;5060265;28;20450;-84
2022/07/22 03:47:44;;;;;;;2.90;1.97;;;;;;;;;;5064774;28;20753;-83
2022/07/22 03:50:14;;;;;;;3.13;2.10;;;;;;;;;;5062882;28;20445;-83
2022/07/22 03:52:41;;;;;;;8.93;2.70;;;;;;;;;;5061396;28;20517;-83
2022/07/22 03:55:09;;;;;;;8.47;2.87;;;;;;;;;;5061125;28;20477;-81
2022/07/22 03:57:39;;;;;;;5.10;1.67;;;;;;;;;;5059236;28;20465;-83
2022/07/22 04:00:08;;;;;;;3.93;2.30;;;;;;;;;;5061043;28;20518;-83
2022/07/22 04:02:36;;;;;;;8.27;2.50;;;;;;;;;;5060615;28;20461;-82
2022/07/22 04:05:04;;;;;;;6.13;2.70;;;;;;;;;;5059947;28;20726;-83
2022/07/22 04:07:32;;;;;;;6.40;2.60;;;;;;;;;;5062410;28;20465;-83
2022/07/22 04:10:05;;;;;;;2.30;1.83;;;;;;;;;;5058557;28;20854;-84
2022/07/22 04:12:34;;;;;;;4.47;2.07;;;;;;;;;;5060335;28;20485;-83
2022/07/22 04:15:03;;;;;;;4.27;2.20;;;;;;;;;;5059598;28;20485;-83
2022/07/22 04:17:32;;;;;;;4.10;1.80;;;;;;;;;;5060670;28;20457;-82
2022/07/22 04:20:00;;;;;;;4.67;2.10;;;;;;;;;;5058767;28;20446;-83
2022/07/22 04:22:31;;;;;;;5.30;2.40;;;;;;;;;;5061619;28;20474;-83
2022/07/22 04:24:58;;;;;;;4.37;2.20;;;;;;;;;;5059813;28;20450;-83
2022/07/22 04:27:26;;;;;;;3.50;1.50;;;;;;;;;;5060694;28;20449;-83
2022/07/22 04:29:54;;;;;;;3.50;1.90;;;;;;;;;;5059558;28;20469;-84
2022/07/22 04:32:26;;;;;;;3.50;1.93;;;;;;;;;;5060781;28;20462;-83
2022/07/22 04:34:54;;;;;;;5.77;2.13;;;;;;;;;;5059825;28;20485;-83
2022/07/22 04:37:23;;;;;;;3.80;1.97;;;;;;;;;;5061079;28;20780;-83
2022/07/22 04:39:50;;;;;;;4.93;2.20;;;;;;;;;;5059083;28;20454;-84
2022/07/22 04:42:18;;;;;;;5.53;3.10;;;;;;;;;;5059245;28;20461;-82
2022/07/22 04:44:46;;;;;;;7.90;2.67;;;;;;;;;;5059633;28;20438;-83
2022/07/22 04:47:14;;;;;;;7.23;2.60;;;;;;;;;;5058718;28;20734;-83
2022/07/22 04:49:43;;;;;;;4.37;3.27;;;;;;;;;;5060796;28;20877;-83
2022/07/22 04:52:12;;;;;;;6.57;3.10;;;;;;;;;;5059856;28;20461;-84
2022/07/22 04:54:40;;;;;;;4.50;3.00;;;;;;;;;;5058976;28;20841;-83
2022/07/22 04:57:08;;;;;;;4.83;3.13;;;;;;;;;;5060005;28;20465;-83
2022/07/22 04:59:36;;;;;;;3.80;3.00;;;;;;;;;;5059546;28;20464;-84
2022/07/22 05:02:04;;;;;;;3.70;2.47;;;;;;;;;;5057957;28;20527;-83
2022/07/22 05:04:31;;;;;;;3.87;2.57;;;;;;;;;;5059154;28;20445;-82
2022/07/22 05:07:02;;;;;;;6.23;2.70;;;;;;;;;;5058298;28;20480;-82
2022/07/22 05:09:31;;;;;;;5.17;3.00;;;;;;;;;;5059193;28;20449;-82
2022/07/22 05:11:59;;;;;;;5.07;2.67;;;;;;;;;;5057713;28;20527;-84
2022/07/22 05:14:27;;;;;;;7.33;2.87;;;;;;;;;;5055374;28;20534;-82
2022/07/22 05:16:54;;;;;;;4.27;2.87;;;;;;;;;;5056764;28;20983;-81
2022/07/22 05:19:23;;;;;;;8.30;2.83;;;;;;;;;;5055481;28;20712;-83
2022/07/22 05:21:51;;;;;;;3.77;2.70;;;;;;;;;;5057426;28;20534;-82
2022/07/22 05:24:20;;;;;;;8.03;3.57;;;;;;;;;;5057035;28;20449;-82
2022/07/22 05:26:53;;;;;;;6.50;3.57;;;;;;;;;;5055711;28;20461;-80
2022/07/22 05:29:21;;;;;;;7.83;3.93;;;;;;;;;;5056781;28;20857;-80
2022/07/22 05:31:49;;;;;;;5.20;3.00;;;;;;;;;;5054614;28;20476;-83
2022/07/22 05:34:17;;;;;;;10.40;3.70;;;;;;;;;;5059204;28;20488;-83
2022/07/22 05:36:45;;;;;;;7.37;3.77;;;;;;;;;;5057048;28;20454;-83
2022/07/22 05:39:12;;;;;;;4.97;2.70;;;;;;;;;;5058548;28;20518;-80
2022/07/22 05:41:42;;;;;;;6.60;2.80;;;;;;;;;;5056760;28;20461;-79
2022/07/22 05:44:09;;;;;;;11.20;3.73;;;;;;;;;;5055989;28;20511;-82
2022/07/22 05:46:37;;;;;;;7.23;3.10;;;;;;;;;;5058712;28;20821;-80
2022/07/22 05:49:05;;;;;;;6.73;2.40;;;;;;;;;;5058419;28;20749;-81
2022/07/22 05:51:34;;;;;;;3.67;2.43;;;;;;;;;;5058931;28;20457;-82
2022/07/22 05:54:07;;;;;;;3.60;2.23;;;;;;;;;;5057741;28;20481;-82
2022/07/22 05:56:36;;;;;;;3.60;2.10;;;;;;;;;;5057526;28;20457;-82
2022/07/22 05:59:08;;;;;;;7.50;2.43;;;;;;;;;;5058844;28;20449;-81
2022/07/22 06:01:35;;;;;;;6.93;3.17;;;;;;;;;;5057634;28;20454;-81
2022/07/22 06:04:03;;;;;;;8.03;3.13;;;;;;;;;;5056330;28;20505;-80
2022/07/22 06:06:31;;;;;;;6.80;2.67;;;;;;;;;;5055177;28;20472;-81
2022/07/22 06:09:00;;;;;;;5.03;2.40;;;;;;;;;;5058149;28;20776;-82
2022/07/22 06:11:28;;;;;;;9.50;1.90;;;;;;;;;;5058663;28;20483;-82
2022/07/22 06:13:55;;;;;;;3.47;1.33;;;;;;;;;;5056619;28;20454;-83
2022/07/22 06:16:25;;;;;;;4.40;2.03;;;;;;;;;;5055140;28;20490;-82
2022/07/22 06:18:52;;;;;;;5.90;1.97;;;;;;;;;;5046407;28;20468;-81
2022/07/22 06:21:20;;;;;;;4.83;2.30;;;;;;;;;;5050357;28;20480;-83
2022/07/22 06:23:48;;;;;;;4.07;1.87;;;;;;;;;;5058881;28;20464;-83
2022/07/22 06:26:16;;;;;;;7.00;1.77;;;;;;;;;;5057573;28;20461;-81
2022/07/22 06:28:44;;;;;;;4.43;1.87;;;;;;;;;;5057937;28;20472;-83
2022/07/22 06:31:11;;;;;;;6.93;2.17;;;;;;;;;;5057178;28;20458;-82
2022/07/22 06:33:41;;;;;;;6.33;2.03;;;;;;;;;;5058381;28;20480;-84
2022/07/22 06:36:08;;;;;;;3.33;1.77;;;;;;;;;;5052944;28;20525;-81
2022/07/22 06:38:37;;;;;;;2.53;1.57;;;;;;;;;;5053222;28;20445;-82
2022/07/22 06:41:04;;;;;;;4.77;1.83;;;;;;;;;;5058717;28;20464;-82
2022/07/22 06:43:32;;;;;;;4.20;1.60;;;;;;;;;;5055608;28;20750;-79
2022/07/22 06:46:03;;;;;;;6.90;2.00;;;;;;;;;;5050427;28;20446;-82
2022/07/22 06:48:30;;;;;;;4.70;1.87;;;;;;;;;;5039004;28;20524;-83
2022/07/22 06:51:00;;;;;;;4.23;2.27;;;;;;;;;;5044980;28;20835;-79
2022/07/22 06:53:29;;;;;;;5.00;2.23;;;;;;;;;;5060369;28;20454;-83
2022/07/22 06:55:57;;;;;;;3.20;1.50;;;;;;;;;;5059202;28;20485;-83
2022/07/22 06:58:24;;;;;;;4.50;2.40;;;;;;;;;;5058751;28;20461;-83
2022/07/22 07:00:54;;;;;;;7.53;1.77;;;;;;;;;;5059966;28;20433;-84
2022/07/22 07:03:25;;;;;;;3.80;1.60;;;;;;;;;;5057685;28;20790;-84
2022/07/22 07:05:53;;;;;;;5.10;2.57;;;;;;;;;;5056738;28;20760;-83
2022/07/22 07:08:22;;;;;;;5.80;2.10;;;;;;;;;;5058704;28;20462;-82
2022/07/22 07:10:50;;;;;;;5.57;1.97;;;;;;;;;;5059117;28;20454;-84
2022/07/22 07:13:17;;;;;;;4.00;1.80;;;;;;;;;;5056877;28;20892;-86
2022/07/22 07:15:45;;;;;;;4.50;2.07;;;;;;;;;;5058529;28;20530;-84
2022/07/22 07:18:15;;;;;;;5.67;2.27;;;;;;;;;;5057177;28;20869;-84
2022/07/22 07:20:43;;;;;;;5.00;1.93;;;;;;;;;;5058518;28;20785;-80
2022/07/22 07:23:11;;;;;;;7.60;2.00;;;;;;;;;;5060564;28;20492;-81
2022/07/22 07:25:41;;;;;;;5.70;2.53;;;;;;;;;;5059653;28;20536;-84
2022/07/22 07:28:09;;;;;;;9.60;2.77;;;;;;;;;;5056212;28;20826;-84
2022/07/22 07:30:37;;;;;;;9.70;2.50;;;;;;;;;;5054392;28;20450;-85
2022/07/22 07:33:06;;;;;;;7.03;2.60;;;;;;;;;;5058049;28;20460;-78
2022/07/22 07:35:34;;;;;;;9.47;4.17;;;;;;;;;;5057034;28;20858;-83
2022/07/22 07:38:04;;;;;;;6.17;2.30;;;;;;;;;;5058246;28;20457;-83
2022/07/22 07:40:33;;;;;;;8.17;2.23;;;;;;;;;;5063064;28;20955;-83
2022/07/22 07:43:03;;;;;;;10.23;3.70;;;;;;;;;;5062351;28;20504;-82
2022/07/22 07:45:32;;;;;;;4.97;2.20;;;;;;;;;;5065395;28;20456;-80
2022/07/22 07:48:00;;;;;;;8.20;3.27;;;;;;;;;;5063657;28;20564;-84
2022/07/22 07:50:29;;;;;;;10.60;3.07;;;;;;;;;;5066777;28;20714;-81
2022/07/22 07:52:57;;;;;;;8.17;3.20;;;;;;;;;;5062929;28;20521;-81
2022/07/22 07:55:28;;;;;;;7.63;2.20;;;;;;;;;;5055601;28;20485;-81
2022/07/22 07:58:00;;;;;;;7.00;2.10;;;;;;;;;;5062894;28;20469;-80
2022/07/22 08:00:42;;;;;;;5.40;2.57;;;;;;;;;;5047125;28;20539;-81
2022/07/22 08:03:11;;;;;;;9.30;2.37;;;;;;;;;;5062854;28;20543;-81
2022/07/22 08:05:42;;;;;;;8.30;2.50;;;;;;;;;;5066054;28;20449;-79
2022/07/22 08:08:10;;;;;;;7.63;2.27;;;;;;;;;;5062980;28;20477;-82
2022/07/22 08:10:43;;;;;;;6.07;1.83;;;;;;;;;;5062892;28;20553;-83
2022/07/22 08:13:11;;;;;;;6.57;2.77;;;;;;;;;;5064551;28;20461;-81
2022/07/22 08:15:40;;;;;;;7.97;2.23;;;;;;;;;;5063768;28;20473;-82
2022/07/22 08:18:08;;;;;;;7.63;1.90;;;;;;;;;;5061773;28;20492;-82
2022/07/22 08:20:36;;;;;;;9.80;1.80;;;;;;;;;;5063577;28;20450;-82
2022/07/22 08:23:04;;;;;;;5.27;2.00;;;;;;;;;;5062618;28;20496;-82
2022/07/22 08:25:32;;;;;;;5.67;1.90;;;;;;;;;;5061530;28;20485;-83
2022/07/22 08:28:01;;;;;;;6.90;2.27;;;;;;;;;;5062819;28;20539;-82
2022/07/22 08:30:28;;;;;;;10.93;2.63;;;;;;;;;;5065247;28;20450;-81
2022/07/22 08:33:03;;;;;;;7.43;2.03;;;;;;;;;;5063508;28;20542;-82
2022/07/22 08:35:31;;;;;;;8.33;4.43;;;;;;;;;;5064255;28;20926;-81
2022/07/22 08:37:59;;;;;;;7.33;2.80;;;;;;;;;;5062661;28;20461;-80
2022/07/22 08:40:28;;;;;;;5.83;2.20;;;;;;;;;;5062496;28;20462;-82
2022/07/22 08:43:00;;;;;;;6.80;3.13;;;;;;;;;;5065119;28;20464;-81
2022/07/22 08:45:32;;;;;;;11.60;2.13;;;;;;;;;;5062677;28;20905;-82
2022/07/22 08:48:03;;;;;;;7.63;2.20;;;;;;;;;;5054620;28;20528;-84
2022/07/22 08:50:31;;;;;;;9.40;2.70;;;;;;;;;;5058753;28;20540;-83
2022/07/22 08:52:59;;;;;;;8.87;2.57;;;;;;;;;;5060999;28;20469;-82
2022/07/22 08:55:27;;;;;;;7.20;2.20;;;;;;;;;;5062025;28;20481;-80
2022/07/22 08:57:55;;;;;;;5.20;2.27;;;;;;;;;;5062374;28;20468;-85
2022/07/22 09:00:24;;;;;;;7.63;2.60;;;;;;;;;;5063283;28;20450;-81
2022/07/22 09:02:52;;;;;;;7.07;2.50;;;;;;;;;;5060777;28;20531;-82
2022/07/22 09:05:22;;;;;;;8.80;2.37;;;;;;;;;;5061542;28;20485;-81
2022/07/22 09:07:50;;;;;;;6.10;2.13;;;;;;;;;;5061616;28;20523;-85
2022/07/22 09:10:19;;;;;;;6.47;2.63;;;;;;;;;;5063603;28;20517;-79
2022/07/22 09:12:55;;;;;;;6.30;2.27;;;;;;;;;;5059214;28;20519;-84
2022/07/22 09:15:30;;;;;;;4.53;1.90;;;;;;;;;;5060911;28;20472;-84
2022/07/22 09:17:59;;;;;;;4.03;2.10;;;;;;;;;;5058897;28;20465;-83
2022/07/22 09:20:28;;;;;;;4.60;1.43;;;;;;;;;;5059348;28;20476;-86
2022/07/22 09:22:57;;;;;;;6.40;2.10;;;;;;;;;;5058383;28;20496;-81
2022/07/22 09:25:29;;;;;;;5.20;2.20;;;;;;;;;;5058586;28;20457;-83
2022/07/22 09:28:12;;;;;;;11.33;3.50;;;;;;;;;;5054547;28;20466;-83
2022/07/22 09:30:42;;;;;;;5.30;2.30;;;;;;;;;;5053507;28;20481;-85
2022/07/22 09:33:10;;;;;;;7.43;2.30;;;;;;;;;;5058800;28;20461;-81
2022/07/22 09:35:41;;;;;;;5.33;2.23;;;;;;;;;;5062225;28;20481;-80
2022/07/22 09:38:11;;;;;;;8.90;2.47;;;;;;;;;;5062599;28;20481;-84
2022/07/22 09:40:40;;;;;;;5.53;2.10;;;;;;;;;;5063793;28;20453;-82
2022/07/22 09:43:12;;;;;;;4.97;2.30;;;;;;;;;;5062023;28;20548;-83
2022/07/22 09:45:47;;;;;;;9.87;2.30;;;;;;;;;;5059635;28;20498;-82
2022/07/22 09:48:17;;;;;;;11.47;2.20;;;;;;;;;;5060664;28;20484;-81
2022/07/22 09:50:46;;;;;;;4.90;2.63;;;;;;;;;;5060145;28;20449;-83
2022/07/22 09:53:21;;;;;;;7.63;2.50;;;;;;;;;;5061342;28;20465;-81
2022/07/22 09:55:49;;;;;;;8.40;2.80;;;;;;;;;;5061535;28;20481;-80
2022/07/22 09:58:17;;;;;;;8.10;2.50;;;;;;;;;;5062321;28;20462;-83
2022/07/22 10:00:53;;;;;;;7.03;2.10;;;;;;;;;;5061103;28;20442;-83
2022/07/22 10:03:23;;;;;;;5.23;2.63;;;;;;;;;;5061586;28;20571;-81
2022/07/22 10:05:52;;;;;;;4.70;2.43;;;;;;;;;;5060675;28;21131;-81
2022/07/22 10:08:21;;;;;;;6.77;2.17;;;;;;;;;;5063910;28;20527;-80
2022/07/22 10:10:49;;;;;;;8.17;2.73;;;;;;;;;;5061129;28;20454;-83
2022/07/22 10:13:19;;;;;;;9.10;2.50;;;;;;;;;;5060732;28;20462;-83
2022/07/22 10:15:48;;;;;;;4.83;2.20;;;;;;;;;;5059403;28;20492;-84
2022/07/22 10:18:18;;;;;;;7.33;2.87;;;;;;;;;;5059473;28;20473;-83
2022/07/22 10:20:49;;;;;;;4.53;2.13;;;;;;;;;;5063515;28;20452;-81
2022/07/22 10:23:18;;;;;;;4.67;2.60;;;;;;;;;;5063061;28;20465;-82
2022/07/22 10:25:54;;;;;;;7.03;2.53;;;;;;;;;;5063223;28;20533;-82
2022/07/22 10:28:26;;;;;;;7.07;2.37;;;;;;;;;;5062171;28;20461;-82
2022/07/22 10:30:55;;;;;;;5.73;1.80;;;;;;;;;;5059022;28;20512;-81
2022/07/22 10:33:23;;;;;;;6.73;1.87;;;;;;;;;;5057277;28;20886;-83
2022/07/22 10:35:56;;;;;;;4.43;1.53;;;;;;;;;;5061854;28;20856;-80
2022/07/22 10:38:27;;;;;;;7.10;2.30;;;;;;;;;;5062193;28;20461;-81
2022/07/22 10:40:56;;;;;;;4.97;1.90;;;;;;;;;;5062445;28;20446;-82
2022/07/22 10:43:29;;;;;;;6.90;2.33;;;;;;;;;;5060960;28;21161;-82
2022/07/22 10:45:58;;;;;;;5.93;1.80;;;;;;;;;;5060135;28;20521;-82
2022/07/22 10:48:27;;;;;;;6.73;2.20;;;;;;;;;;5052787;28;20461;-79
2022/07/22 10:51:10;;;;;;;6.10;2.37;;;;;;;;;;5061701;28;20441;-83
2022/07/22 10:53:44;;;;;;;8.90;2.23;;;;;;;;;;5061813;28;20521;-82
2022/07/22 10:56:16;;;;;;;7.23;2.40;;;;;;;;;;5061574;28;20481;-82
2022/07/22 10:58:45;;;;;;;5.47;2.10;;;;;;;;;;5063823;28;20453;-84
2022/07/22 11:01:20;;;;;;;6.30;2.43;;;;;;;;;;5063946;28;20450;-82
2022/07/22 11:03:49;;;;;;;6.00;2.73;;;;;;;;;;5065096;28;20460;-82
2022/07/22 11:06:23;;;;;;;9.50;3.97;;;;;;;;;;5062463;28;20480;-83
2022/07/22 11:08:55;;;;;;;5.13;2.20;;;;;;;;;;5064230;28;20483;-83
2022/07/22 11:11:45;;;;;;;7.47;2.27;;;;;;;;;;5063923;28;20650;-83
2022/07/22 11:14:16;;;;;;;5.40;1.73;;;;;;;;;;5061029;28;20489;-81
2022/07/22 11:16:44;;;;;;;8.23;1.87;;;;;;;;;;5066221;28;20477;-81
2022/07/22 11:19:13;;;;;;;3.67;1.90;;;;;;;;;;5062905;28;20575;-79
2022/07/22 11:21:40;;;;;;;5.37;2.07;;;;;;;;;;5061794;28;20500;-81
2022/07/22 11:24:10;;;;;;;8.90;2.47;;;;;;;;;;5059892;28;20485;-84
2022/07/22 11:26:41;;;;;;;7.43;1.70;;;;;;;;;;5061944;28;20519;-82
2022/07/22 11:29:09;;;;;;;5.60;2.20;;;;;;;;;;5054645;28;20464;-80
2022/07/22 11:31:38;;;;;;;3.80;2.20;;;;;;;;;;5060423;28;20461;-82
2022/07/22 11:34:07;;;;;;;6.20;1.97;;;;;;;;;;5063156;28;20465;-80
2022/07/22 11:36:35;;;;;;;3.37;1.60;;;;;;;;;;5063656;28;20481;-83
2022/07/22 11:39:05;;;;;;;6.60;2.07;;;;;;;;;;5064712;28;20516;-83
2022/07/22 11:41:36;;;;;;;3.90;1.90;;;;;;;;;;5065234;28;20532;-81
2022/07/22 11:44:05;;;;;;;12.13;2.60;;;;;;;;;;5054193;28;20462;-82
2022/07/22 11:46:39;;;;;;;4.30;1.90;;;;;;;;;;5064429;28;20458;-81
2022/07/22 11:49:07;;;;;;;3.67;1.80;;;;;;;;;;5048242;28;20457;-78
2022/07/22 11:51:36;;;;;;;4.03;2.27;;;;;;;;;;5065449;28;21055;-81
2022/07/22 11:54:05;;;;;;;5.40;2.10;;;;;;;;;;5064419;28;20465;-83
2022/07/22 11:56:35;;;;;;;5.10;2.07;;;;;;;;;;5066308;28;20481;-83
2022/07/22 11:59:04;;;;;;;6.90;2.00;;;;;;;;;;5064421;28;20477;-84
2022/07/22 12:01:34;;;;;;;3.40;1.57;;;;;;;;;;5062387;28;20861;-84
2022/07/22 12:04:03;;;;;;;3.87;1.80;;;;;;;;;;5061577;28;20530;-81
2022/07/22 12:06:34;;;;;;;4.93;1.40;;;;;;;;;;5059920;28;20771;-81
2022/07/22 12:09:05;;;;;;;3.20;1.53;;;;;;;;;;5063765;28;20464;-83
2022/07/22 12:11:33;;;;;;;6.50;1.80;;;;;;;;;;5059253;28;20457;-83
2022/07/22 12:14:06;;;;;;;6.47;1.77;;;;;;;;;;5060581;28;20461;-83
2022/07/22 12:16:41;;;;;;;4.27;1.80;;;;;;;;;;5058463;28;20767;-84
2022/07/22 12:19:10;;;;;;;5.70;2.10;;;;;;;;;;5065992;28;20471;-80
2022/07/22 12:21:39;;;;;;;6.07;1.83;;;;;;;;;;5058152;28;20544;-84
2022/07/22 12:24:09;;;;;;;7.43;2.20;;;;;;;;;;5064227;28;20610;-82
2022/07/22 12:26:44;;;;;;;7.17;1.93;;;;;;;;;;5062787;28;20445;-81
2022/07/22 12:29:25;;;;;;;6.13;1.80;;;;;;;;;;5061856;28;20456;-83
2022/07/22 12:31:54;;;;;;;6.50;2.00;;;;;;;;;;5055874;28;20462;-83
2022/07/22 12:34:32;;;;;;;5.73;1.90;;;;;;;;;;5062755;28;20488;-82
2022/07/22 12:37:03;;;;;;;4.50;1.57;;;;;;;;;;5063542;28;20928;-84
2022/07/22 12:39:31;;;;;;;6.80;1.73;;;;;;;;;;5062854;28;20458;-83
2022/07/22 12:41:59;;;;;;;2.80;1.50;;;;;;;;;;5064873;28;20514;-82
2022/07/22 12:44:32;;;;;;;4.13;1.80;;;;;;;;;;5055602;28;20458;-83
2022/07/22 12:47:00;;;;;;;7.73;2.00;;;;;;;;;;5060600;28;20515;-81
2022/07/22 12:49:28;;;;;;;4.80;1.87;;;;;;;;;;5063488;28;20456;-83
2022/07/22 12:52:17;;;;;;;7.27;1.30;;;;;;;;;;5064727;28;20483;-81
2022/07/22 12:54:46;;;;;;;3.37;1.30;;;;;;;;;;5057420;28;20462;-81
2022/07/22 12:57:14;;;;;;;2.03;1.20;;;;;;;;;;5058237;28;20493;-82
2022/07/22 12:59:52;;;;;;;4.90;1.70;;;;;;;;;;5060761;28;20461;-80
2022/07/22 13:02:30;;;;;;;3.97;1.57;;;;;;;;;;5064905;28;20492;-83
2022/07/22 13:04:59;;;;;;;3.10;1.73;;;;;;;;;;5054417;28;20560;-83
2022/07/22 13:07:27;;;;;;;3.93;1.40;;;;;;;;;;5063163;28;20527;-83
2022/07/22 13:09:54;;;;;;;6.80;1.63;;;;;;;;;;5056445;28;20547;-82
2022/07/22 13:12:22;;;;;;;3.70;1.80;;;;;;;;;;5058250;28;20525;-82
2022/07/22 13:14:51;;;;;;;3.87;1.23;;;;;;;;;;5061683;28;20466;-84
2022/07/22 13:17:19;;;;;;;5.67;1.83;;;;;;;;;;5062811;28;20497;-83
2022/07/22 13:19:57;;;;;;;5.13;1.53;;;;;;;;;;5061009;28;20496;-81
2022/07/22 13:22:25;;;;;;;5.53;1.30;;;;;;;;;;5062791;28;20992;-82
2022/07/22 13:24:52;;;;;;;5.00;1.67;;;;;;;;;;5058863;28;20535;-85
2022/07/22 13:30:11;;;;;;;5.03;1.70;;;;;;;;;;5062664;28;20429;-83
2022/07/22 13:32:39;;;;;;;6.60;2.00;;;;;;;;;;5060663;28;20460;-82
2022/07/22 13:35:08;;;;;;;4.50;1.87;;;;;;;;;;5057833;28;20515;-82
2022/07/22 13:37:36;;;;;;;3.03;1.47;;;;;;;;;;5062201;28;20497;-85
2022/07/22 13:40:09;;;;;;;9.20;1.47;;;;;;;;;;5057929;28;20477;-80
2022/07/22 13:42:36;;;;;;;4.87;1.80;;;;;;;;;;5059786;28;20488;-79
2022/07/22 13:45:05;;;;;;;2.33;1.50;;;;;;;;;;5059187;28;20813;-85
2022/07/22 13:47:36;;;;;;;3.03;1.40;;;;;;;;;;5058893;28;20457;-84
2022/07/22 13:50:05;;;;;;;4.13;1.53;;;;;;;;;;5054683;28;20476;-83
2022/07/22 13:52:34;;;;;;;13.70;2.67;;;;;;;;;;5057806;28;20460;-84
2022/07/22 13:55:25;;;;;;;6.53;1.97;;;;;;;;;;5057847;28;20535;-84
2022/07/22 13:57:52;;;;;;;6.53;1.60;;;;;;;;;;5052484;28;20555;-81
2022/07/22 14:00:27;;;;;;;4.33;1.60;;;;;;;;;;5059315;28;20466;-78
2022/07/22 14:03:29;;;;;;;4.53;1.90;;;;;;;;;;5063229;28;20741;-77
2022/07/22 14:06:00;;;;;;;5.00;1.80;;;;;;;;;;5063012;28;20502;-77
2022/07/22 14:11:19;;;;;;;3.93;1.80;;;;;;;;;;5055689;28;20442;-78
2022/07/22 14:13:47;;;;;;;4.63;1.57;;;;;;;;;;5055673;28;20527;-77
2022/07/22 14:19:07;;;;;;;4.53;1.37;;;;;;;;;;5057202;28;20549;-79
2022/07/22 14:21:42;;;;;;;5.73;1.50;;;;;;;;;;5055746;28;20442;-79
2022/07/22 14:24:13;;;;;;;3.30;1.70;;;;;;;;;;5064110;28;20456;-78
2022/07/22 14:26:49;;;;;;;4.03;2.33;;;;;;;;;;5061556;28;20442;-79
2022/07/22 14:29:24;;;;;;;6.97;2.23;;;;;;;;;;5061828;28;20477;-79
2022/07/22 14:31:55;;;;;;;4.53;1.50;;;;;;;;;;5053010;28;20470;-80
2022/07/22 14:34:26;;;;;;;5.90;1.60;;;;;;;;;;5052425;28;20735;-79
2022/07/22 14:36:54;;;;;;;5.33;1.70;;;;;;;;;;5066195;28;20481;-80
2022/07/22 14:39:23;;;;;;;3.77;1.73;;;;;;;;;;5047894;28;20455;-77
2022/07/22 14:41:51;;;;;;;4.40;1.33;;;;;;;;;;5061104;28;20484;-82
2022/07/22 14:44:26;;;;;;;3.57;1.67;;;;;;;;;;5053208;28;20493;-80
2022/07/22 14:46:54;;;;;;;5.93;2.30;;;;;;;;;;5053962;28;20770;-81
2022/07/22 14:49:22;;;;;;;3.10;1.50;;;;;;;;;;5060176;28;20477;-80
2022/07/22 14:51:52;;;;;;;3.13;1.73;;;;;;;;;;5063552;28;20468;-78
2022/07/22 14:54:26;;;;;;;5.10;2.80;;;;;;;;;;5050680;28;20473;-80
2022/07/22 14:56:54;;;;;;;3.17;1.50;;;;;;;;;;5053383;28;20782;-82
2022/07/22 14:59:25;;;;;;;7.03;1.60;;;;;;;;;;5062561;28;20464;-78
2022/07/22 15:01:54;;;;;;;4.20;1.70;;;;;;;;;;5064093;28;20442;-79